createdAt,value
2023-01-19T00:00:53.112Z,7.10
2023-01-19T00:03:19.761Z,7.63
2023-01-19T00:05:46.462Z,10.60
2023-01-19T00:08:16.780Z,13.75
2023-01-19T00:10:48.427Z,7.93
2023-01-19T00:13:15.762Z,8.80
2023-01-19T00:15:42.517Z,16.08
2023-01-19T00:18:10.887Z,14.10
2023-01-19T00:20:41.426Z,8.25
2023-01-19T00:23:08.939Z,10.18
2023-01-19T00:25:42.317Z,14.38
2023-01-19T00:28:12.266Z,14.80
2023-01-19T00:30:40.054Z,19.10
2023-01-19T00:33:06.787Z,9.07
2023-01-19T00:35:35.115Z,15.63
2023-01-19T00:38:02.930Z,8.07
2023-01-19T00:40:29.639Z,9.40
2023-01-19T00:42:56.312Z,11.38
2023-01-19T00:45:24.413Z,9.20
2023-01-19T00:47:56.870Z,11.52
2023-01-19T00:50:25.036Z,10.38
2023-01-19T00:52:53.896Z,9.57
2023-01-19T00:55:21.086Z,7.35
2023-01-19T00:57:47.769Z,12.38
2023-01-19T01:00:22.062Z,9.90
2023-01-19T01:02:50.541Z,8.82
2023-01-19T01:05:18.174Z,10.43
2023-01-19T01:07:45.299Z,9.38
2023-01-19T01:10:15.276Z,12.00
2023-01-19T01:12:56.177Z,10.27
2023-01-19T01:15:27.750Z,9.55
2023-01-19T01:17:54.789Z,13.35
2023-01-19T01:20:25.314Z,14.70
2023-01-19T01:22:53.757Z,6.32
2023-01-19T01:25:23.757Z,8.88
2023-01-19T01:27:51.193Z,11.20
2023-01-19T01:30:18.528Z,15.30
2023-01-19T01:32:45.216Z,6.80
2023-01-19T01:35:12.643Z,6.30
2023-01-19T01:37:39.797Z,11.05
2023-01-19T01:40:07.408Z,8.57
2023-01-19T01:42:34.755Z,9.77
2023-01-19T01:45:06.204Z,9.05
2023-01-19T01:47:36.480Z,7.20
2023-01-19T01:50:25.365Z,6.80
2023-01-19T01:53:07.699Z,10.75
2023-01-19T01:58:06.074Z,8.80
2023-01-19T02:00:52.880Z,7.28
2023-01-19T02:03:22.042Z,11.95
2023-01-19T02:05:49.216Z,6.57
2023-01-19T02:08:41.598Z,6.15
2023-01-19T02:11:27.512Z,7.32
2023-01-19T02:13:54.329Z,8.07
2023-01-19T02:16:20.991Z,8.13
2023-01-19T02:18:47.808Z,5.47
2023-01-19T02:21:23.415Z,7.93
2023-01-19T02:23:55.723Z,9.85
2023-01-19T02:26:34.405Z,8.65
2023-01-19T02:29:04.297Z,6.25
2023-01-19T02:31:33.662Z,5.82
2023-01-19T02:34:01.933Z,6.32
2023-01-19T02:36:42.966Z,9.00
2023-01-19T02:39:11.217Z,5.05
2023-01-19T02:41:52.726Z,6.70
2023-01-19T02:44:21.126Z,9.82
2023-01-19T02:46:47.791Z,6.97
2023-01-19T02:49:14.688Z,4.43
2023-01-19T02:51:44.085Z,4.22
2023-01-19T02:54:32.191Z,3.58
2023-01-19T02:57:24.503Z,5.53
2023-01-19T02:59:57.135Z,5.18
2023-01-19T03:02:34.449Z,3.70
2023-01-19T03:05:23.752Z,10.13
2023-01-19T03:08:15.989Z,5.63
2023-01-19T03:10:51.507Z,7.00
2023-01-19T03:13:39.443Z,6.53
2023-01-19T03:16:23.061Z,12.15
2023-01-19T03:19:12.697Z,10.07
2023-01-19T03:21:43.558Z,5.10
2023-01-19T03:24:12.441Z,12.13
2023-01-19T03:26:44.159Z,8.57
2023-01-19T03:29:14.112Z,6.80
2023-01-19T03:31:44.660Z,3.97
2023-01-19T03:34:15.154Z,4.15
2023-01-19T03:36:51.804Z,5.32
2023-01-19T03:39:22.589Z,4.18
2023-01-19T03:41:54.156Z,7.85
2023-01-19T03:44:23.745Z,5.53
2023-01-19T03:46:51.061Z,8.65
2023-01-19T03:49:18.003Z,3.25
2023-01-19T03:51:44.942Z,8.43
2023-01-19T03:54:12.004Z,7.18
2023-01-19T03:56:38.880Z,13.77
2023-01-19T03:59:08.400Z,4.15
2023-01-19T04:01:35.125Z,4.15
2023-01-19T04:04:01.867Z,12.35
2023-01-19T04:06:28.528Z,4.93
2023-01-19T04:08:55.180Z,3.88
2023-01-19T04:11:21.863Z,6.43
2023-01-19T04:13:48.492Z,7.47
2023-01-19T04:16:20.025Z,3.80
2023-01-19T04:18:48.418Z,4.45
2023-01-19T04:21:15.438Z,7.00
2023-01-19T04:23:44.406Z,6.53
2023-01-19T04:26:11.084Z,5.80
2023-01-19T04:28:37.934Z,5.00
2023-01-19T04:31:06.887Z,10.05
2023-01-19T04:33:34.491Z,7.45
2023-01-19T04:36:01.728Z,3.53
2023-01-19T04:38:28.468Z,4.55
2023-01-19T04:40:55.725Z,7.38
2023-01-19T04:43:23.480Z,10.05
2023-01-19T04:45:50.519Z,5.35
2023-01-19T04:48:18.590Z,6.85
2023-01-19T04:50:45.714Z,5.90
2023-01-19T04:53:13.816Z,7.65
2023-01-19T04:55:40.798Z,5.75
2023-01-19T04:58:07.485Z,6.47
2023-01-19T05:00:34.160Z,4.40
2023-01-19T05:03:01.834Z,3.92
2023-01-19T05:05:28.833Z,5.55
2023-01-19T05:07:55.687Z,1.95
2023-01-19T05:10:22.385Z,4.35
2023-01-19T05:12:49.579Z,2.60
2023-01-19T05:15:16.348Z,4.07
2023-01-19T05:17:43.118Z,2.63
2023-01-19T05:20:13.355Z,3.20
2023-01-19T05:22:41.671Z,3.35
2023-01-19T05:25:08.825Z,4.07
2023-01-19T05:27:36.665Z,4.18
2023-01-19T05:30:05.068Z,4.10
2023-01-19T05:32:31.699Z,2.65
2023-01-19T05:34:58.379Z,6.93
2023-01-19T05:37:25.045Z,6.32
2023-01-19T05:39:51.930Z,6.03
2023-01-19T05:42:18.528Z,3.17
2023-01-19T05:44:45.163Z,4.78
2023-01-19T05:47:11.891Z,4.53
2023-01-19T05:49:38.500Z,3.92
2023-01-19T05:52:06.333Z,6.95
2023-01-19T05:54:33.126Z,3.40
2023-01-19T05:56:59.832Z,4.32
2023-01-19T05:59:26.513Z,6.50
2023-01-19T06:01:53.896Z,11.35
2023-01-19T06:04:21.278Z,4.50
2023-01-19T06:06:49.134Z,5.38
2023-01-19T06:09:17.312Z,4.40
2023-01-19T06:11:45.219Z,5.85
2023-01-19T06:14:12.167Z,6.85
2023-01-19T06:16:39.132Z,3.35
2023-01-19T06:19:05.832Z,7.40
2023-01-19T06:21:32.997Z,6.80
2023-01-19T06:23:59.697Z,3.47
2023-01-19T06:26:27.622Z,6.32
2023-01-19T06:28:55.165Z,7.75
2023-01-19T06:31:23.257Z,6.55
2023-01-19T06:33:50.194Z,6.55
2023-01-19T06:36:16.855Z,8.10
2023-01-19T06:38:43.509Z,3.47
2023-01-19T06:41:10.110Z,3.75
2023-01-19T06:43:36.727Z,5.47
2023-01-19T06:46:04.094Z,7.85
2023-01-19T06:48:30.875Z,8.68
2023-01-19T06:50:59.548Z,6.65
2023-01-19T06:53:28.384Z,20.48
2023-01-19T06:56:02.070Z,3.20
2023-01-19T06:58:30.778Z,8.63
2023-01-19T07:01:03.375Z,5.30
2023-01-19T07:03:30.614Z,6.00
2023-01-19T07:05:57.520Z,4.15
2023-01-19T07:08:24.393Z,4.82
2023-01-19T07:11:26.742Z,5.68
2023-01-19T07:13:40.242Z,5.90
2023-01-19T07:16:09.405Z,8.95
2023-01-19T07:18:37.749Z,7.18
2023-01-19T07:21:05.780Z,7.15
2023-01-19T07:23:32.868Z,4.90
2023-01-19T07:26:03.826Z,5.97
2023-01-19T07:28:31.734Z,7.10
2023-01-19T07:30:58.776Z,5.53
2023-01-19T07:33:26.281Z,4.68
2023-01-19T07:35:53.288Z,4.70
2023-01-19T07:38:20.455Z,3.67
2023-01-19T07:40:47.207Z,6.03
2023-01-19T07:43:15.016Z,9.57
2023-01-19T07:45:42.043Z,7.63
2023-01-19T07:48:09.072Z,6.57
2023-01-19T07:50:35.714Z,4.88
2023-01-19T07:53:08.387Z,7.55
2023-01-19T07:55:35.829Z,6.55
2023-01-19T07:58:07.277Z,6.72
2023-01-19T08:00:38.204Z,7.10
2023-01-19T08:03:05.530Z,5.15
2023-01-19T08:05:33.305Z,4.60
2023-01-19T08:08:00.641Z,4.43
2023-01-19T08:10:28.720Z,7.70
2023-01-19T08:12:57.031Z,6.68
2023-01-19T08:15:24.826Z,7.03
2023-01-19T08:18:01.935Z,6.07
2023-01-19T08:20:29.648Z,8.32
2023-01-19T08:23:05.612Z,7.75
2023-01-19T08:25:38.045Z,4.75
2023-01-19T08:28:06.272Z,6.47
2023-01-19T08:30:33.655Z,9.95
2023-01-19T08:33:08.401Z,6.32
2023-01-19T08:35:37.923Z,12.80
2023-01-19T08:38:06.095Z,6.47
2023-01-19T08:40:36.028Z,9.73
2023-01-19T08:43:14.830Z,11.90
2023-01-19T08:45:49.926Z,5.07
2023-01-19T08:48:18.743Z,4.93
2023-01-19T08:50:47.452Z,9.43
2023-01-19T08:53:15.162Z,5.43
2023-01-19T08:55:42.347Z,5.55
2023-01-19T08:58:09.853Z,6.30
2023-01-19T09:00:38.212Z,5.45
2023-01-19T09:03:07.284Z,11.82
2023-01-19T09:05:37.402Z,12.48
2023-01-19T09:08:06.272Z,15.35
2023-01-19T09:10:36.205Z,12.23
2023-01-19T09:13:08.370Z,16.75
2023-01-19T09:18:07.101Z,10.93
2023-01-19T09:20:36.142Z,7.60
2023-01-19T09:23:03.004Z,8.32
2023-01-19T09:25:29.747Z,12.60
2023-01-19T09:28:02.845Z,17.40
2023-01-19T09:30:29.794Z,7.07
2023-01-19T09:32:58.047Z,8.73
2023-01-19T09:35:26.017Z,9.30
2023-01-19T09:37:52.788Z,8.52
2023-01-19T09:40:23.489Z,14.43
2023-01-19T09:43:05.149Z,11.40
2023-01-19T09:45:39.855Z,9.23
2023-01-19T09:48:28.937Z,7.05
2023-01-19T09:50:59.558Z,10.85
2023-01-19T09:53:45.033Z,14.95
2023-01-19T09:56:15.293Z,13.02
2023-01-19T09:58:42.488Z,14.73
2023-01-19T10:01:23.172Z,17.45
2023-01-19T10:03:54.934Z,16.90
2023-01-19T10:06:23.241Z,15.35
2023-01-19T10:09:09.810Z,25.35
2023-01-19T10:11:52.099Z,6.57
2023-01-19T10:14:43.370Z,7.35
2023-01-19T10:17:38.067Z,8.35
2023-01-19T10:20:13.109Z,10.10
2023-01-19T10:22:43.438Z,7.15
2023-01-19T10:25:19.426Z,14.95
2023-01-19T10:27:46.751Z,9.32
2023-01-19T10:30:26.282Z,8.32
2023-01-19T10:32:53.423Z,12.25
2023-01-19T10:35:25.071Z,7.35
2023-01-19T10:37:56.657Z,12.13
2023-01-19T10:40:37.538Z,7.40
2023-01-19T10:43:38.345Z,13.18
2023-01-19T10:46:28.175Z,10.25
2023-01-19T10:48:56.020Z,10.48
2023-01-19T10:51:23.389Z,10.65
2023-01-19T10:53:59.408Z,12.50
2023-01-19T10:56:31.757Z,5.60
2023-01-19T10:59:04.020Z,9.23
2023-01-19T11:01:36.011Z,11.70
2023-01-19T11:04:28.740Z,6.22
2023-01-19T11:07:19.120Z,4.70
2023-01-19T11:09:47.098Z,7.95
2023-01-19T11:12:22.948Z,9.00
2023-01-19T11:14:51.860Z,8.15
2023-01-19T11:17:26.265Z,11.90
2023-01-19T11:19:56.319Z,11.60
2023-01-19T11:22:27.945Z,11.55
2023-01-19T11:24:58.988Z,7.20
2023-01-19T11:27:26.244Z,11.25
2023-01-19T11:30:21.054Z,8.65
2023-01-19T11:32:49.374Z,13.48
2023-01-19T11:35:37.051Z,6.95
2023-01-19T11:38:12.807Z,7.25
2023-01-19T11:40:41.922Z,12.43
2023-01-19T11:43:13.512Z,11.32
2023-01-19T11:45:40.506Z,9.80
2023-01-19T11:48:11.101Z,9.85
2023-01-19T11:50:43.828Z,7.32
2023-01-19T11:53:25.491Z,10.88
2023-01-19T11:56:20.603Z,7.20
2023-01-19T11:58:47.472Z,10.60
2023-01-19T12:01:24.864Z,10.30
2023-01-19T12:04:04.564Z,5.43
2023-01-19T12:06:34.275Z,6.57
2023-01-19T12:09:11.745Z,6.88
2023-01-19T12:11:43.521Z,7.07
2023-01-19T12:14:23.118Z,9.52
2023-01-19T12:16:53.284Z,7.10
2023-01-19T12:19:34.722Z,10.82
2023-01-19T12:22:02.929Z,13.60
2023-01-19T12:24:42.311Z,10.43
2023-01-19T12:27:45.622Z,8.95
2023-01-19T12:30:21.373Z,9.20
2023-01-19T12:32:48.380Z,6.82
2023-01-19T12:35:52.639Z,5.53
2023-01-19T12:38:53.546Z,8.73
2023-01-19T12:41:25.325Z,5.47
2023-01-19T12:44:10.405Z,7.50
2023-01-19T12:46:39.664Z,8.20
2023-01-19T12:49:12.423Z,8.02
2023-01-19T12:51:39.063Z,5.80
2023-01-19T12:54:08.457Z,7.70
2023-01-19T12:56:38.417Z,4.28
2023-01-19T12:59:06.510Z,6.22
2023-01-19T13:01:33.395Z,4.88
2023-01-19T13:04:25.949Z,7.88
2023-01-19T13:06:52.605Z,6.22
2023-01-19T13:09:33.988Z,5.45
2023-01-19T13:12:22.490Z,6.63
2023-01-19T13:14:50.833Z,6.38
2023-01-19T13:17:36.265Z,5.63
2023-01-19T13:20:23.231Z,10.70
2023-01-19T13:22:50.700Z,4.60
2023-01-19T13:25:36.300Z,8.48
2023-01-19T13:28:09.299Z,8.02
2023-01-19T13:30:37.390Z,5.38
2023-01-19T13:33:13.734Z,4.45
2023-01-19T13:35:40.426Z,4.50
2023-01-19T13:38:11.321Z,2.90
2023-01-19T13:40:39.097Z,6.10
2023-01-19T13:43:17.831Z,3.83
2023-01-19T13:45:51.138Z,8.70
2023-01-19T13:48:24.306Z,6.20
2023-01-19T13:51:06.039Z,8.18
2023-01-19T13:53:33.103Z,5.87
2023-01-19T13:56:07.590Z,7.50
2023-01-19T13:58:34.248Z,6.90
2023-01-19T14:01:01.155Z,5.38
2023-01-19T14:03:27.921Z,4.97
2023-01-19T14:05:55.001Z,7.00
2023-01-19T14:08:23.017Z,5.20
2023-01-19T14:10:56.358Z,6.97
2023-01-19T14:13:32.030Z,5.95
2023-01-19T14:16:04.285Z,4.35
2023-01-19T14:18:33.497Z,4.45
2023-01-19T14:21:01.931Z,6.53
2023-01-19T14:23:44.245Z,6.32
2023-01-19T14:26:46.425Z,6.63
2023-01-19T14:29:18.700Z,5.45
2023-01-19T14:32:06.692Z,9.20
2023-01-19T14:34:45.008Z,5.03
2023-01-19T14:37:27.240Z,3.08
2023-01-19T14:39:59.371Z,9.90
2023-01-19T14:42:33.449Z,5.60
2023-01-19T14:45:03.005Z,1.83
2023-01-19T14:47:29.761Z,3.28
2023-01-19T14:50:00.575Z,5.22
2023-01-19T14:52:34.849Z,5.70
2023-01-19T14:55:03.989Z,5.63
2023-01-19T14:57:30.611Z,5.25
2023-01-19T14:59:57.339Z,3.08
2023-01-19T15:02:24.028Z,3.75
2023-01-19T15:04:55.173Z,4.80
2023-01-19T15:07:24.323Z,4.30
2023-01-19T15:09:51.698Z,2.05
2023-01-19T15:12:18.979Z,3.33
2023-01-19T15:14:45.936Z,2.92
2023-01-19T15:17:27.399Z,6.20
2023-01-19T15:19:55.261Z,8.45
2023-01-19T15:22:22.744Z,5.13
2023-01-19T15:24:49.807Z,4.18
2023-01-19T15:27:17.047Z,6.68
2023-01-19T15:29:43.771Z,5.60
2023-01-19T15:32:14.784Z,2.72
2023-01-19T15:34:42.125Z,6.22
2023-01-19T15:37:09.175Z,7.55
2023-01-19T15:39:35.920Z,4.93
2023-01-19T15:42:02.648Z,5.07
2023-01-19T15:44:30.206Z,14.02
2023-01-19T15:46:57.514Z,10.77
2023-01-19T15:49:24.357Z,9.93
2023-01-19T15:51:51.070Z,6.70
2023-01-19T15:54:18.709Z,8.93
2023-01-19T15:56:45.391Z,9.00
2023-01-19T15:59:12.116Z,5.50
2023-01-19T16:01:40.254Z,8.85
2023-01-19T16:04:09.610Z,4.13
2023-01-19T16:06:36.229Z,8.60
2023-01-19T16:09:03.914Z,5.20
2023-01-19T16:11:35.190Z,6.70
2023-01-19T16:14:02.108Z,10.20
2023-01-19T16:16:28.843Z,10.15
2023-01-19T16:18:55.709Z,6.25
2023-01-19T16:21:22.608Z,6.88
2023-01-19T16:23:49.533Z,8.35
2023-01-19T16:26:34.787Z,6.43
2023-01-19T16:29:08.768Z,7.70
2023-01-19T16:31:36.483Z,8.65
2023-01-19T16:34:03.784Z,9.50
2023-01-19T16:36:32.672Z,6.43
2023-01-19T16:39:05.936Z,6.55
2023-01-19T16:41:33.858Z,9.48
2023-01-19T16:44:00.875Z,8.77
2023-01-19T16:46:30.598Z,8.55
2023-01-19T16:49:03.061Z,10.82
2023-01-19T16:53:56.828Z,16.75
2023-01-19T16:56:24.056Z,14.68
2023-01-19T16:58:55.692Z,25.77
2023-01-19T17:01:23.911Z,12.23
2023-01-19T17:03:51.075Z,16.40
2023-01-19T17:06:20.212Z,12.68
2023-01-19T17:08:47.439Z,9.35
2023-01-19T17:11:19.631Z,12.07
2023-01-19T17:14:08.948Z,12.85
2023-01-19T17:16:36.090Z,17.55
2023-01-19T17:19:05.417Z,21.83
2023-01-19T17:21:32.361Z,21.02
2023-01-19T17:23:59.485Z,17.60
2023-01-19T17:26:31.208Z,15.27
2023-01-19T17:29:06.444Z,15.90
2023-01-19T17:31:34.054Z,19.05
2023-01-19T17:34:01.105Z,17.73
2023-01-19T17:36:29.215Z,20.85
2023-01-19T17:38:57.909Z,22.10
2023-01-19T17:41:30.544Z,21.48
2023-01-19T17:44:00.405Z,19.48
2023-01-19T17:46:28.686Z,17.48
2023-01-19T17:49:00.620Z,11.52
2023-01-19T17:51:28.238Z,17.65
2023-01-19T17:53:55.559Z,23.10
2023-01-19T17:56:29.800Z,19.48
2023-01-19T17:58:57.832Z,17.67
2023-01-19T18:01:27.891Z,15.90
2023-01-19T18:03:55.318Z,21.95
2023-01-19T18:06:22.475Z,19.52
2023-01-19T18:08:49.908Z,19.92
2023-01-19T18:11:19.626Z,22.70
2023-01-19T18:13:48.389Z,16.20
2023-01-19T18:16:18.419Z,22.58
2023-01-19T18:18:45.167Z,20.45
2023-01-19T18:21:13.950Z,25.80
2023-01-19T18:23:43.431Z,19.67
2023-01-19T18:26:16.609Z,21.80
2023-01-19T18:28:43.597Z,16.27
2023-01-19T18:31:12.546Z,15.25
2023-01-19T18:33:39.962Z,19.92
2023-01-19T18:36:07.537Z,21.63
2023-01-19T18:38:35.113Z,18.40
2023-01-19T18:41:05.963Z,21.27
2023-01-19T18:43:33.315Z,30.65
2023-01-19T18:46:00.227Z,24.73
2023-01-19T18:48:27.042Z,23.90
2023-01-19T18:50:54.078Z,35.28
2023-01-19T18:53:21.741Z,39.30
2023-01-19T18:55:58.212Z,30.58
2023-01-19T18:58:28.589Z,30.05
2023-01-19T19:00:56.813Z,23.75
2023-01-19T19:03:23.907Z,20.08
2023-01-19T19:05:50.650Z,19.42
2023-01-19T19:08:17.733Z,16.52
2023-01-19T19:10:44.848Z,21.13
2023-01-19T19:13:16.328Z,15.85
2023-01-19T19:15:44.468Z,19.57
2023-01-19T19:18:16.367Z,15.20
2023-01-19T19:20:43.553Z,36.67
2023-01-19T19:23:11.249Z,58.28
2023-01-19T19:25:38.352Z,56.92
2023-01-19T19:28:05.245Z,34.53
2023-01-19T19:30:34.369Z,29.27
2023-01-19T19:33:01.626Z,39.85
2023-01-19T19:35:28.594Z,32.75
2023-01-19T19:37:57.652Z,30.33
2023-01-19T19:40:26.618Z,28.02
2023-01-19T19:42:54.035Z,23.73
2023-01-19T19:45:20.894Z,17.40
2023-01-19T19:47:47.778Z,23.35
2023-01-19T19:50:14.888Z,19.90
2023-01-19T19:52:42.266Z,21.88
2023-01-19T19:55:10.649Z,23.30
2023-01-19T19:57:37.676Z,20.02
2023-01-19T20:00:05.312Z,16.00
2023-01-19T20:02:32.330Z,18.05
2023-01-19T20:04:59.084Z,15.40
2023-01-19T20:07:25.976Z,16.05
2023-01-19T20:09:55.060Z,19.10
2023-01-19T20:12:21.987Z,21.42
2023-01-19T20:14:48.951Z,20.10
2023-01-19T20:17:15.772Z,17.38
2023-01-19T20:19:44.153Z,17.95
2023-01-19T20:22:10.797Z,21.25
2023-01-19T20:24:37.601Z,24.15
2023-01-19T20:27:04.430Z,20.98
2023-01-19T20:29:31.102Z,26.02
2023-01-19T20:31:58.003Z,23.70
2023-01-19T20:34:33.024Z,22.60
2023-01-19T20:37:01.810Z,17.85
2023-01-19T20:39:33.217Z,16.98
2023-01-19T20:42:00.582Z,18.67
2023-01-19T20:44:27.478Z,18.38
2023-01-19T20:46:56.414Z,22.23
2023-01-19T20:49:23.520Z,19.08
2023-01-19T20:51:52.073Z,18.20
2023-01-19T20:54:22.812Z,18.27
2023-01-19T20:56:50.611Z,23.10
2023-01-19T20:59:17.641Z,21.55
2023-01-19T21:01:45.038Z,23.98
2023-01-19T21:04:12.898Z,20.30
2023-01-19T21:06:40.761Z,17.27
2023-01-19T21:09:09.149Z,22.38
2023-01-19T21:11:38.048Z,21.98
2023-01-19T21:14:05.279Z,31.58
2023-01-19T21:16:34.172Z,33.00
2023-01-19T21:19:01.059Z,37.30
2023-01-19T21:21:31.247Z,34.58
2023-01-19T21:24:00.380Z,31.48
2023-01-19T21:26:30.053Z,34.90
2023-01-19T21:28:58.241Z,35.20
2023-01-19T21:31:27.565Z,27.20
2023-01-19T21:33:55.046Z,22.23
2023-01-19T21:36:22.554Z,28.73
2023-01-19T21:38:51.409Z,26.15
2023-01-19T21:41:19.685Z,23.40
2023-01-19T21:43:46.606Z,32.72
2023-01-19T21:46:18.365Z,34.47
2023-01-19T21:48:45.980Z,27.23
2023-01-19T21:51:14.275Z,27.77
2023-01-19T21:53:41.136Z,29.05
2023-01-19T21:56:09.748Z,29.10
2023-01-19T21:58:37.054Z,31.98
2023-01-19T22:01:07.012Z,33.38
2023-01-19T22:03:33.971Z,29.48
2023-01-19T22:06:08.606Z,32.67
2023-01-19T22:08:36.990Z,38.63
2023-01-19T22:11:05.771Z,34.95
2023-01-19T22:13:33.952Z,39.95
2023-01-19T22:16:02.910Z,37.08
2023-01-19T22:18:29.760Z,32.95
2023-01-19T22:20:56.938Z,35.92
2023-01-19T22:23:23.806Z,34.42
2023-01-19T22:25:50.520Z,39.95
2023-01-19T22:28:17.355Z,34.95
2023-01-19T22:30:44.148Z,34.33
2023-01-19T22:33:11.242Z,33.53
2023-01-19T22:35:38.316Z,33.83
2023-01-19T22:38:05.228Z,31.25
2023-01-19T22:40:32.227Z,32.58
2023-01-19T22:42:59.058Z,27.65
2023-01-19T22:45:27.790Z,30.33
2023-01-19T22:47:54.814Z,27.80
2023-01-19T22:50:21.612Z,29.98
2023-01-19T22:52:55.296Z,31.38
2023-01-19T22:55:22.080Z,25.33
2023-01-19T22:57:49.276Z,23.13
2023-01-19T23:00:16.621Z,25.15
2023-01-19T23:02:43.441Z,22.30
2023-01-19T23:05:11.130Z,24.73
2023-01-19T23:07:38.057Z,28.48
2023-01-19T23:10:05.124Z,25.05
2023-01-19T23:12:31.761Z,26.17
2023-01-19T23:14:58.624Z,28.35
2023-01-19T23:17:25.249Z,24.75
2023-01-19T23:19:51.866Z,29.55
2023-01-19T23:22:18.657Z,25.38
2023-01-19T23:24:45.342Z,29.52
2023-01-19T23:27:12.063Z,27.80
2023-01-19T23:29:38.739Z,30.33
2023-01-19T23:32:05.359Z,29.95
2023-01-19T23:34:32.000Z,31.08
2023-01-19T23:36:58.716Z,37.38
2023-01-19T23:39:26.461Z,42.97
2023-01-19T23:41:53.109Z,35.08
2023-01-19T23:44:19.941Z,41.55
2023-01-19T23:46:47.031Z,39.97
2023-01-19T23:49:14.155Z,41.30
2023-01-19T23:51:41.485Z,43.53
2023-01-19T23:54:09.264Z,50.08
2023-01-19T23:56:37.438Z,51.83
2023-01-19T23:59:07.491Z,48.83
